Time;durP1;ratioP1;P1;durP2;ratioP2;P2;SDS_P1;SDS_P2;PMS_P1;PMS_P2;Temp;Humidity;BMP_temperature;BMP_pressure;BME280_temperature;BME280_humidity;BME280_pressure;Samples;Min_cycle;Max_cycle;Signal;HPM_P1;HPM_P2
2022/06/13 00:03:00;;;;;;;7.65;2.03;;;;;;;15.04;73.75;101011.56;5030665;28;20044;-72
2022/06/13 00:06:03;;;;;;;4.93;1.67;;;;;;;15.36;71.64;101019.19;5030779;28;20103;-72
2022/06/13 00:09:07;;;;;;;5.32;2.03;;;;;;;15.50;70.33;101016.50;5030083;28;20433;-72
2022/06/13 00:12:10;;;;;;;10.20;1.95;;;;;;;15.44;71.01;101026.59;5031249;28;20048;-72
2022/06/13 00:15:15;;;;;;;7.55;2.45;;;;;;;15.10;72.67;101024.34;5031251;28;20087;-72
2022/06/13 00:18:18;;;;;;;5.03;2.00;;;;;;;15.07;73.40;101024.53;5030633;28;20044;-72
2022/06/13 00:21:34;;;;;;;9.32;2.13;;;;;;;15.07;73.70;101028.97;5030712;28;20076;-72
2022/06/13 00:24:37;;;;;;;11.02;2.75;;;;;;;14.93;73.90;101016.63;5030678;28;20049;-72
2022/06/13 00:27:40;;;;;;;7.88;2.13;;;;;;;15.03;73.40;101017.78;5030004;28;20051;-72
2022/06/13 00:30:43;;;;;;;7.63;2.63;;;;;;;14.83;74.07;101026.91;5030343;28;20044;-72
2022/06/13 00:33:47;;;;;;;9.73;2.38;;;;;;;14.68;75.00;101027.88;5029990;28;20080;-72
2022/06/13 00:36:51;;;;;;;6.32;1.77;;;;;;;14.75;73.23;101025.69;5029450;28;20095;-72
2022/06/13 00:39:54;;;;;;;6.50;2.60;;;;;;;15.07;72.47;101029.78;5029624;28;20045;-72
2022/06/13 00:42:58;;;;;;;7.43;2.15;;;;;;;14.74;74.17;101029.25;5028720;28;20040;-72
2022/06/13 00:46:01;;;;;;;7.28;2.33;;;;;;;14.57;74.57;101030.28;5029060;28;20052;-73
2022/06/13 00:49:09;;;;;;;7.35;2.17;;;;;;;14.51;74.85;101036.75;5028753;28;20045;-72
2022/06/13 00:52:13;;;;;;;8.70;2.45;;;;;;;14.42;75.17;101024.13;5029926;28;20044;-73
2022/06/13 00:55:33;;;;;;;11.73;2.33;;;;;;;14.46;74.86;101033.56;5030267;28;20041;-72
2022/06/13 00:58:45;;;;;;;7.75;2.30;;;;;;;14.41;75.13;101036.44;5009943;28;20084;-72
2022/06/13 01:01:48;;;;;;;5.47;1.67;;;;;;;14.32;75.58;101038.78;5010295;28;20177;-72
2022/06/13 01:04:52;;;;;;;8.00;2.50;;;;;;;14.26;75.14;101036.50;5010252;28;20113;-73
2022/06/13 01:07:59;;;;;;;9.60;1.98;;;;;;;14.24;75.18;101038.41;5009976;28;20519;-73
2022/06/13 01:11:18;;;;;;;6.78;2.22;;;;;;;14.25;75.00;101037.47;5009650;28;20056;-73
2022/06/13 01:14:40;;;;;;;6.28;2.08;;;;;;;14.20;74.90;101035.13;5009984;28;20044;-72
2022/06/13 01:18:03;;;;;;;10.10;2.20;;;;;;;14.15;75.26;101035.38;5010160;28;20582;-72
2022/06/13 01:21:28;;;;;;;5.40;2.15;;;;;;;14.12;74.89;101039.97;5009166;28;20049;-72
2022/06/13 01:24:40;;;;;;;6.35;2.10;;;;;;;14.01;75.14;101037.97;5010248;28;20531;-72
2022/06/13 01:28:05;;;;;;;8.25;2.20;;;;;;;13.91;75.87;101031.53;5010194;28;20057;-72
2022/06/13 01:31:27;;;;;;;8.25;2.33;;;;;;;13.91;75.49;101021.03;5009405;28;20056;-72
2022/06/13 01:34:51;;;;;;;4.95;2.30;;;;;;;13.81;75.74;101019.88;5009646;28;20198;-72
2022/06/13 01:38:23;;;;;;;11.68;3.08;;;;;;;13.77;76.13;101018.38;5009416;28;20049;-72
2022/06/13 01:41:58;;;;;;;8.60;2.28;;;;;;;13.69;76.08;101022.28;5009062;28;20049;-74
2022/06/13 01:45:21;;;;;;;8.88;2.67;;;;;;;13.47;76.68;101025.28;5009725;28;20080;-72
2022/06/13 01:48:36;;;;;;;6.53;1.75;;;;;;;13.57;76.34;101024.78;5009446;28;20133;-73
2022/06/13 01:52:03;;;;;;;9.15;2.13;;;;;;;13.43;76.61;101021.16;5009733;28;20583;-72
2022/06/13 01:55:16;;;;;;;5.30;1.83;;;;;;;13.44;76.20;101022.00;5025777;28;20561;-72
2022/06/13 01:58:32;;;;;;;7.90;2.20;;;;;;;13.54;75.67;101023.16;5029121;28;20130;-72
2022/06/13 02:01:41;;;;;;;5.75;1.83;;;;;;;13.62;74.87;101020.91;5028859;28;20100;-72
2022/06/13 02:04:53;;;;;;;11.57;2.70;;;;;;;13.46;74.78;101020.97;5028955;28;20049;-72
2022/06/13 02:08:09;;;;;;;9.23;2.17;;;;;;;13.29;75.69;101013.19;5029075;28;20137;-73
2022/06/13 02:11:22;;;;;;;7.25;2.40;;;;;;;13.36;75.39;101021.56;5029243;28;20052;-72
2022/06/13 02:14:41;;;;;;;;;;;;;;;13.15;76.60;101019.16;5029435;28;20101;-72
2022/06/13 02:17:52;;;;;;;8.90;2.15;;;;;;;13.12;76.77;101013.25;5028532;28;19959;-72
2022/06/13 02:21:02;;;;;;;6.25;1.90;;;;;;;13.34;75.50;101012.94;5028957;28;20068;-72
2022/06/13 02:24:10;;;;;;;10.90;2.05;;;;;;;13.09;76.13;101003.75;5028451;28;20047;-72
2022/06/13 02:27:18;;;;;;;9.25;2.47;;;;;;;13.02;76.46;101010.28;5028703;28;20419;-72
2022/06/13 02:30:27;;;;;;;7.43;2.22;;;;;;;12.97;76.46;101009.66;5027774;28;20052;-72
2022/06/13 02:33:36;;;;;;;7.10;2.10;;;;;;;12.96;76.46;101006.22;5019295;28;20127;-72
2022/06/13 02:36:48;;;;;;;7.93;2.10;;;;;;;12.86;76.90;101014.63;5027897;28;20068;-72
2022/06/13 02:39:58;;;;;;;4.28;1.80;;;;;;;12.93;76.53;101021.28;5028206;28;20040;-72
2022/06/13 02:43:04;;;;;;;4.15;2.25;;;;;;;12.78;77.22;101025.56;5027125;28;20117;-72
2022/06/13 02:46:19;;;;;;;7.53;2.05;;;;;;;12.69;77.42;101032.13;5016213;28;20148;-72
2022/06/13 02:49:36;;;;;;;9.18;2.80;;;;;;;12.96;76.03;101029.84;5028670;28;20509;-72
2022/06/13 02:52:47;;;;;;;6.35;1.73;;;;;;;12.97;75.91;101038.53;5028255;28;20462;-72
2022/06/13 02:56:37;;;;;;;6.00;1.85;;;;;;;12.82;76.03;101040.19;5028274;28;20130;-73
2022/06/13 02:59:44;;;;;;;5.53;2.15;;;;;;;12.58;76.58;101052.84;4947405;29;20501;-72
2022/06/13 03:03:02;;;;;;;7.18;2.10;;;;;;;12.61;76.66;101052.69;4947380;29;20051;-72
2022/06/13 03:06:19;;;;;;;8.45;2.45;;;;;;;12.71;75.97;101053.91;5027370;28;20064;-72
2022/06/13 03:10:01;;;;;;;6.03;2.20;;;;;;;12.71;76.01;101048.66;5028606;28;20072;-72
2022/06/13 03:13:15;;;;;;;6.93;2.28;;;;;;;12.51;76.77;101051.50;5027852;28;20076;-72
2022/06/13 03:16:17;;;;;;;;;;;;;;;12.46;76.96;101056.97;5028294;28;20048;-73
2022/06/13 03:19:23;;;;;;;6.88;1.70;;;;;;;12.38;77.20;101060.88;5028429;28;19966;-72
2022/06/13 03:22:47;;;;;;;5.45;2.03;;;;;;;12.41;76.97;101068.59;5028419;28;20048;-72
2022/06/13 03:26:05;;;;;;;9.68;2.30;;;;;;;12.62;76.03;101064.03;5027499;28;20056;-73
2022/06/13 03:29:17;;;;;;;8.48;2.70;;;;;;;12.44;77.13;101071.91;5027852;28;20045;-72
2022/06/13 03:32:26;;;;;;;5.32;2.00;;;;;;;12.39;77.62;101062.59;5028072;28;20182;-72
2022/06/13 03:35:29;;;;;;;9.68;1.92;;;;;;;12.43;77.23;101077.25;5027992;28;20119;-73
2022/06/13 03:38:38;;;;;;;5.22;1.75;;;;;;;12.29;77.86;101077.97;5027859;28;20052;-72
2022/06/13 03:41:48;;;;;;;5.93;1.77;;;;;;;12.61;76.96;101073.69;5027725;28;20622;-72
2022/06/13 03:45:06;;;;;;;3.10;1.58;;;;;;;12.78;75.49;101080.66;5030049;28;20135;-72
2022/06/13 03:48:17;;;;;;;6.82;2.17;;;;;;;12.41;76.89;101087.84;5031361;28;20048;-72
2022/06/13 03:51:26;;;;;;;5.82;2.33;;;;;;;12.47;76.84;101094.53;5031561;28;20055;-72
2022/06/13 03:54:38;;;;;;;6.65;2.30;;;;;;;12.50;76.13;101097.00;5031495;28;20052;-72
2022/06/13 03:57:56;;;;;;;5.35;1.70;;;;;;;12.15;78.07;101102.22;5031260;28;20107;-72
2022/06/13 04:01:11;;;;;;;3.85;1.40;;;;;;;12.61;75.16;101099.91;5030900;28;20477;-72
2022/06/13 04:04:20;;;;;;;7.57;2.15;;;;;;;12.80;74.37;101097.19;5009725;28;20407;-72
2022/06/13 04:07:29;;;;;;;6.28;1.75;;;;;;;12.69;75.34;101097.72;4997559;28;20650;-73
2022/06/13 04:10:53;;;;;;;5.60;2.28;;;;;;;12.73;74.45;101103.66;5020950;28;20095;-72
2022/06/13 04:14:18;;;;;;;6.95;2.20;;;;;;;12.59;75.21;101111.41;5030316;28;20411;-73
2022/06/13 04:17:47;;;;;;;5.35;1.70;;;;;;;12.45;76.38;101106.88;5029105;28;20140;-71
2022/06/13 04:21:04;;;;;;;7.40;1.90;;;;;;;12.32;77.13;101111.91;5029652;28;20048;-74
2022/06/13 04:24:23;;;;;;;7.22;1.70;;;;;;;12.49;76.21;101111.03;5029052;28;20103;-74
2022/06/13 04:27:40;;;;;;;7.68;2.35;;;;;;;12.19;77.38;101103.78;5030321;28;20137;-75
2022/06/13 04:30:46;;;;;;;5.45;2.10;;;;;;;12.42;76.30;101099.16;5029468;28;20045;-73
2022/06/13 04:33:57;;;;;;;7.45;2.00;;;;;;;12.49;75.52;101096.16;5015916;28;20056;-72
2022/06/13 04:37:03;;;;;;;5.32;1.83;;;;;;;12.66;74.91;101091.81;5023730;28;20453;-72
2022/06/13 04:40:13;;;;;;;6.10;2.00;;;;;;;12.57;75.26;101098.38;5027852;28;20048;-72
2022/06/13 04:43:20;;;;;;;6.18;1.90;;;;;;;12.73;74.51;101093.16;5029865;28;20564;-73
2022/06/13 04:46:26;;;;;;;5.38;1.90;;;;;;;12.85;73.92;101096.94;5029323;28;20091;-74
2022/06/13 04:49:59;;;;;;;5.25;1.90;;;;;;;12.63;75.51;101099.81;5030145;28;20053;-74
2022/06/13 04:53:07;;;;;;;4.05;1.42;;;;;;;12.57;76.30;101094.00;5030478;28;20088;-73
2022/06/13 04:56:10;;;;;;;14.18;2.20;;;;;;;12.70;76.07;101095.94;5030221;28;20609;-73
2022/06/13 04:59:15;;;;;;;6.47;1.95;;;;;;;12.58;76.70;101100.09;5017824;28;20114;-74
2022/06/13 05:02:25;;;;;;;5.85;1.85;;;;;;;12.50;77.53;101094.38;5029824;28;20044;-74
2022/06/13 05:05:37;;;;;;;6.40;1.65;;;;;;;12.68;77.30;101103.06;5030260;28;20542;-75
2022/06/13 05:08:41;;;;;;;9.80;1.88;;;;;;;12.98;76.07;101109.31;5029309;28;20114;-73
2022/06/13 05:12:09;;;;;;;5.47;1.75;;;;;;;13.13;75.54;101112.06;5029199;28;20107;-74
2022/06/13 05:15:25;;;;;;;8.57;2.25;;;;;;;13.24;75.48;101117.59;5027927;28;20048;-76
2022/06/13 05:18:38;;;;;;;5.70;2.17;;;;;;;13.16;75.79;101110.13;5008114;28;20210;-75
2022/06/13 05:21:49;;;;;;;5.28;1.88;;;;;;;13.39;75.41;101108.91;5008952;28;20526;-75
2022/06/13 05:25:23;;;;;;;6.97;1.92;;;;;;;13.46;75.16;101115.56;5008109;28;20060;-76
2022/06/13 05:28:34;;;;;;;8.30;1.73;;;;;;;13.17;76.46;101119.69;5019172;28;20560;-76
2022/06/13 05:31:38;;;;;;;6.80;2.22;;;;;;;13.23;76.51;101124.63;5028104;28;20048;-75
2022/06/13 05:34:44;;;;;;;8.90;2.10;;;;;;;13.35;76.02;101123.16;5027525;28;20508;-76
2022/06/13 05:37:48;;;;;;;6.10;2.50;;;;;;;13.42;76.04;101124.50;5027681;28;20048;-75
2022/06/13 05:40:51;;;;;;;6.47;2.63;;;;;;;13.62;76.01;101119.94;5028427;28;20422;-76
2022/06/13 05:43:55;;;;;;;6.78;2.55;;;;;;;13.60;75.83;101127.91;5015768;28;20052;-75
2022/06/13 05:46:58;;;;;;;5.47;1.77;;;;;;;13.71;75.51;101128.16;5028550;28;20400;-75
2022/06/13 05:50:02;;;;;;;6.07;1.98;;;;;;;13.52;77.04;101124.84;5028365;28;20095;-76
2022/06/13 05:53:06;;;;;;;4.82;1.65;;;;;;;13.75;76.96;101125.34;5028960;28;20040;-76
2022/06/13 05:56:11;;;;;;;4.68;1.73;;;;;;;13.85;77.03;101122.13;5028910;28;20048;-76
2022/06/13 05:59:15;;;;;;;4.75;1.85;;;;;;;13.99;76.54;101121.34;5028903;28;20115;-75
2022/06/13 06:02:19;;;;;;;5.22;1.83;;;;;;;14.16;76.31;101120.38;5029385;28;20518;-75
2022/06/13 06:05:23;;;;;;;6.32;1.92;;;;;;;14.37;76.16;101129.66;5028766;28;20103;-76
2022/06/13 06:08:31;;;;;;;8.35;1.80;;;;;;;14.57;75.52;101131.13;5029026;28;20271;-76
2022/06/13 06:11:37;;;;;;;8.73;2.08;;;;;;;14.86;74.58;101133.81;5028650;28;20040;-76
2022/06/13 06:14:40;;;;;;;9.70;2.33;;;;;;;14.76;75.52;101130.88;5028525;28;20043;-74
2022/06/13 06:17:44;;;;;;;6.15;2.10;;;;;;;14.93;74.65;101129.84;5028494;28;20052;-76
2022/06/13 06:21:01;;;;;;;8.05;2.40;;;;;;;14.99;75.13;101132.13;5022957;28;20145;-77
2022/06/13 06:24:07;;;;;;;5.43;1.95;;;;;;;15.10;74.59;101132.31;5007315;28;20526;-75
2022/06/13 06:27:15;;;;;;;7.05;2.50;;;;;;;15.30;73.25;101130.25;5007063;28;20052;-75
2022/06/13 06:30:22;;;;;;;10.65;2.28;;;;;;;15.28;72.50;101132.13;4995031;28;20084;-76
2022/06/13 06:33:32;;;;;;;10.07;2.50;;;;;;;15.58;70.00;101132.84;5018954;28;20044;-77
2022/06/13 06:36:45;;;;;;;10.60;2.78;;;;;;;15.64;70.24;101143.94;5027079;28;20127;-71
2022/06/13 06:39:53;;;;;;;9.43;3.00;;;;;;;15.77;64.40;101136.97;5025156;28;20459;-74
2022/06/13 06:43:00;;;;;;;8.18;2.75;;;;;;;15.96;63.53;101140.09;5026517;28;20051;-73
2022/06/13 06:46:04;;;;;;;12.80;2.63;;;;;;;16.15;64.19;101134.47;5026839;28;20506;-73
2022/06/13 06:49:07;;;;;;;11.20;2.92;;;;;;;16.26;61.72;101141.66;5026916;28;20049;-72
2022/06/13 06:52:10;;;;;;;8.60;2.60;;;;;;;16.23;58.86;101142.72;5027498;28;20044;-73
2022/06/13 07:02:02;;;;;;;11.18;2.92;;;;;;;16.03;60.84;101120.28;5028431;28;20135;-76
2022/06/13 07:05:07;;;;;;;11.85;3.28;;;;;;;16.03;59.54;101125.56;5028030;28;20732;-76
2022/06/13 07:08:11;;;;;;;9.38;2.60;;;;;;;16.16;60.34;101130.03;5027356;28;20572;-76
2022/06/13 07:14:41;;;;;;;9.43;2.92;;;;;;;16.29;60.33;101120.34;5028559;28;20044;-79
2022/06/13 07:17:47;;;;;;;14.07;3.45;;;;;;;16.46;60.91;101133.28;5030819;28;20053;-74
2022/06/13 07:20:50;;;;;;;10.23;3.15;;;;;;;16.40;60.23;101131.06;5032171;28;20132;-75
2022/06/13 07:23:53;;;;;;;12.48;3.75;;;;;;;16.39;59.04;101126.69;5031127;28;20094;-77
2022/06/13 07:26:57;;;;;;;12.02;3.03;;;;;;;16.58;58.66;101130.75;5031484;28;20120;-75
2022/06/13 07:30:01;;;;;;;8.82;2.72;;;;;;;16.56;56.90;101132.63;5031698;28;20052;-77
2022/06/13 07:33:04;;;;;;;10.70;3.88;;;;;;;16.65;56.76;101126.72;5031203;28;20099;-76
2022/06/13 07:36:09;;;;;;;13.57;3.65;;;;;;;16.81;55.97;101143.25;5031988;28;20411;-80
2022/06/13 07:39:13;;;;;;;11.73;2.42;;;;;;;16.81;54.86;101140.59;5011029;28;20104;-76
2022/06/13 07:42:19;;;;;;;12.05;2.25;;;;;;;17.02;54.30;101134.81;5026301;28;20044;-87
2022/06/13 07:45:29;;;;;;;10.00;2.47;;;;;;;16.96;53.64;101147.47;5017888;28;20041;-81
2022/06/13 07:48:33;;;;;;;9.57;2.55;;;;;;;17.34;53.14;101141.31;5011119;28;20111;-81
2022/06/13 07:51:38;;;;;;;11.77;3.33;;;;;;;17.43;52.85;101139.81;5018629;28;20249;-79
2022/06/13 07:54:43;;;;;;;10.02;3.08;;;;;;;17.55;53.05;101148.66;5030064;28;20088;-78
2022/06/13 07:57:48;;;;;;;7.28;2.33;;;;;;;17.53;53.58;101153.22;5017608;28;20071;-78
2022/06/13 08:00:52;;;;;;;9.32;2.88;;;;;;;17.52;52.42;101156.84;5017525;28;20044;-82
2022/06/13 08:03:55;;;;;;;10.07;3.03;;;;;;;17.64;53.22;101148.88;5029929;28;20188;-82
2022/06/13 08:06:59;;;;;;;9.38;2.65;;;;;;;17.35;53.29;101161.50;5029658;28;20107;-80
2022/06/13 08:10:02;;;;;;;9.75;2.47;;;;;;;17.33;54.17;101168.72;5030641;28;20107;-79
2022/06/13 08:13:06;;;;;;;9.07;2.63;;;;;;;17.47;54.58;101161.59;5030098;28;20489;-69
2022/06/13 08:16:11;;;;;;;9.43;2.40;;;;;;;17.49;53.79;101157.06;5029531;28;20072;-68
2022/06/13 08:19:14;;;;;;;10.80;2.72;;;;;;;17.51;53.58;101155.13;5029077;28;20565;-70
2022/06/13 08:22:18;;;;;;;9.98;2.38;;;;;;;17.50;55.07;101158.75;5029385;28;20044;-70
2022/06/13 08:25:26;;;;;;;11.70;2.38;;;;;;;17.48;53.39;101160.63;5030010;28;20501;-70
2022/06/13 08:28:30;;;;;;;7.43;2.28;;;;;;;17.67;52.81;101166.28;5028876;28;20424;-69
2022/06/13 08:31:35;;;;;;;10.27;3.05;;;;;;;17.78;52.28;101169.06;5029892;28;20076;-70
2022/06/13 08:34:38;;;;;;;10.07;2.83;;;;;;;17.71;51.40;101161.63;5029711;28;20734;-70
2022/06/13 08:37:42;;;;;;;8.43;2.90;;;;;;;17.71;52.24;101158.97;5030796;28;20064;-70
2022/06/13 08:41:14;;;;;;;7.78;2.30;;;;;;;17.85;50.81;101158.88;5030176;28;20104;-70
2022/06/13 08:44:38;;;;;;;11.43;2.40;;;;;;;17.94;50.48;101160.00;5029771;28;20045;-78
2022/06/13 08:47:46;;;;;;;7.95;2.55;;;;;;;17.93;50.89;101158.31;5029115;28;20052;-78
2022/06/13 08:51:07;;;;;;;8.98;2.30;;;;;;;18.33;50.63;101151.75;5029185;28;20056;-80
2022/06/13 08:54:12;;;;;;;10.60;3.20;;;;;;;18.49;49.99;101151.44;5030495;28;20052;-80
2022/06/13 08:57:17;;;;;;;6.78;2.13;;;;;;;18.45;48.94;101155.28;5030727;28;20048;-79
2022/06/13 09:00:23;;;;;;;8.10;2.60;;;;;;;18.47;48.32;101168.41;5030428;28;20650;-78
2022/06/13 09:03:39;;;;;;;8.00;2.55;;;;;;;18.05;48.83;101170.63;5029660;28;20104;-79
2022/06/13 09:06:53;;;;;;;13.27;3.97;;;;;;;18.22;49.73;101172.03;5030518;28;20083;-80
2022/06/13 09:10:25;;;;;;;8.38;2.35;;;;;;;18.06;49.72;101177.59;5030126;28;20048;-79
2022/06/13 09:13:41;;;;;;;8.40;2.77;;;;;;;17.72;50.93;101181.84;5030191;28;20092;-79
2022/06/13 09:16:55;;;;;;;8.20;2.97;;;;;;;17.78;50.86;101181.44;5030276;28;20103;-78
2022/06/13 09:20:10;;;;;;;12.52;3.05;;;;;;;17.93;51.44;101180.31;5029571;28;20041;-80
2022/06/13 09:23:19;;;;;;;8.85;2.47;;;;;;;18.10;52.13;101176.44;5029512;28;20542;-79
2022/06/13 09:26:29;;;;;;;6.82;2.65;;;;;;;18.14;51.55;101180.56;5029243;28;20562;-80
2022/06/13 09:29:39;;;;;;;11.82;3.28;;;;;;;18.25;50.98;101185.03;5029263;28;20760;-79
2022/06/13 09:32:50;;;;;;;10.55;2.95;;;;;;;17.97;52.13;101183.59;5028040;28;20111;-80
2022/06/13 09:36:13;;;;;;;11.90;3.03;;;;;;;17.89;52.15;101190.28;5028873;28;20084;-74
2022/06/13 09:39:18;;;;;;;9.35;2.60;;;;;;;18.03;51.97;101185.81;5029218;28;20197;-80
2022/06/13 09:42:46;;;;;;;8.98;2.55;;;;;;;18.18;51.69;101189.94;5029266;28;20061;-79
2022/06/13 09:46:03;;;;;;;11.68;2.83;;;;;;;18.24;51.02;101184.19;5027866;28;20407;-69
2022/06/13 09:49:08;;;;;;;9.82;2.80;;;;;;;18.44;50.93;101173.94;5029161;28;20045;-83
2022/06/13 09:52:37;;;;;;;10.52;2.58;;;;;;;19.08;49.94;101157.59;5017246;28;20111;-82
2022/06/13 09:55:53;;;;;;;8.98;2.67;;;;;;;19.27;48.83;101158.69;5028787;28;20109;-83
2022/06/13 09:59:20;;;;;;;5.93;2.35;;;;;;;19.37;48.25;101153.50;5028219;28;20510;-84
2022/06/13 10:02:28;;;;;;;7.57;2.13;;;;;;;19.47;48.06;101148.31;5009256;28;20044;-80
2022/06/13 10:05:36;;;;;;;13.43;3.60;;;;;;;19.14;47.83;101155.31;5009461;28;20467;-79
2022/06/13 10:09:06;;;;;;;12.73;3.35;;;;;;;19.21;46.58;101156.53;5028705;28;20099;-81
2022/06/13 10:12:47;;;;;;;10.85;2.58;;;;;;;19.42;47.80;101155.78;5028780;28;20087;-83
2022/06/13 10:16:06;;;;;;;6.35;2.45;;;;;;;19.52;46.74;101162.03;5028769;28;20095;-84
2022/06/13 10:19:32;;;;;;;9.27;2.63;;;;;;;19.63;46.86;101158.53;5029581;28;20039;-80
2022/06/13 10:22:50;;;;;;;10.43;2.58;;;;;;;19.27;46.30;101168.44;5028715;28;20048;-80
2022/06/13 10:26:03;;;;;;;9.55;2.30;;;;;;;18.98;47.16;101173.38;5016841;28;20049;-81
2022/06/13 10:29:31;;;;;;;8.20;2.60;;;;;;;19.14;48.57;101178.31;5028639;28;20103;-81
2022/06/13 10:33:06;;;;;;;6.93;2.20;;;;;;;19.52;47.81;101167.34;5015960;28;20131;-82
2022/06/13 10:36:22;;;;;;;11.30;3.47;;;;;;;19.86;46.82;101165.50;5023615;28;20569;-83
2022/06/13 10:39:26;;;;;;;10.75;2.70;;;;;;;19.88;47.00;101174.19;5028580;28;20511;-83
2022/06/13 10:42:33;;;;;;;8.48;2.45;;;;;;;19.76;46.86;101172.53;5027789;28;20096;-82
2022/06/13 10:45:43;;;;;;;7.22;2.35;;;;;;;19.61;47.03;101171.91;5016730;28;20124;-82
2022/06/13 10:49:09;;;;;;;9.07;2.83;;;;;;;19.36;47.56;101172.19;5015791;28;20518;-84
2022/06/13 10:52:21;;;;;;;8.98;2.50;;;;;;;18.89;47.55;101174.94;5018445;28;20048;-72
2022/06/13 10:55:27;;;;;;;11.85;2.80;;;;;;;18.78;48.13;101175.75;5032319;28;20064;-72
2022/06/13 10:58:39;;;;;;;11.10;2.75;;;;;;;19.08;47.74;101182.31;5031368;28;20056;-72
2022/06/13 11:01:54;;;;;;;7.05;2.45;;;;;;;19.33;47.45;101169.78;5032278;28;20518;-72
2022/06/13 11:05:03;;;;;;;8.95;2.97;;;;;;;19.78;47.82;101161.78;5031821;28;20044;-73
2022/06/13 11:08:14;;;;;;;10.40;2.70;;;;;;;19.60;45.92;101156.97;5031559;28;20136;-72
2022/06/13 11:11:29;;;;;;;12.73;2.67;;;;;;;19.33;45.94;101169.78;5031093;28;20443;-72
2022/06/13 11:22:37;;;;;;;17.77;2.50;;;;;;;19.31;46.11;101179.69;5019559;28;20075;-72
2022/06/13 11:25:26;;;;;;;11.25;2.47;;;;;;;19.52;43.49;101178.78;5031437;28;20040;-73
2022/06/13 11:28:38;;;;;;;9.82;2.83;;;;;;;19.64;43.42;101177.00;5029342;28;20075;-73
2022/06/13 11:31:59;;;;;;;8.00;2.40;;;;;;;19.45;44.37;101169.66;5030482;28;20083;-73
2022/06/13 11:35:29;;;;;;;8.15;2.42;;;;;;;19.35;43.52;101163.38;5030783;28;20096;-72
2022/06/13 11:38:35;;;;;;;9.35;2.65;;;;;;;19.80;42.36;101175.78;5030183;28;20052;-73
2022/06/13 11:41:44;;;;;;;9.60;2.28;;;;;;;20.00;42.71;101171.50;5017642;28;20509;-71
2022/06/13 11:44:58;;;;;;;10.13;2.63;;;;;;;19.74;39.81;101172.66;5030003;28;20036;-72
2022/06/13 11:48:01;;;;;;;15.35;2.75;;;;;;;19.84;40.55;101182.53;5030143;28;20556;-73
2022/06/13 11:51:16;;;;;;;8.15;2.05;;;;;;;19.67;38.58;101184.72;5029661;28;20049;-73
2022/06/13 11:54:30;;;;;;;15.07;2.85;;;;;;;19.96;39.33;101177.06;5028260;28;20121;-73
2022/06/13 11:57:38;;;;;;;13.68;2.80;;;;;;;20.04;40.14;101168.50;5028909;28;20049;-73
2022/06/13 12:00:54;;;;;;;9.32;2.72;;;;;;;20.57;40.35;101165.84;5029655;28;20091;-73
2022/06/13 12:04:11;;;;;;;8.55;2.40;;;;;;;20.55;38.96;101161.63;5029456;28;21030;-72
2022/06/13 12:07:27;;;;;;;6.93;2.78;;;;;;;20.51;38.77;101155.75;5030433;28;20052;-71
2022/06/13 12:10:35;;;;;;;8.00;2.53;;;;;;;19.95;40.27;101162.13;5029477;28;20064;-72
2022/06/13 12:13:42;;;;;;;8.35;2.38;;;;;;;19.98;40.59;101171.63;5030203;28;20115;-71
2022/06/13 12:16:57;;;;;;;9.75;2.90;;;;;;;19.92;42.68;101169.47;5029800;28;20560;-73
2022/06/13 12:20:22;;;;;;;10.07;3.17;;;;;;;20.30;41.00;101166.34;5029122;28;20103;-72
2022/06/13 12:23:36;;;;;;;9.30;3.30;;;;;;;19.92;39.78;101164.19;5029436;28;20059;-72
2022/06/13 12:26:44;;;;;;;15.98;4.35;;;;;;;20.12;39.64;101166.03;5030179;28;20576;-71
2022/06/13 12:30:09;;;;;;;9.45;3.05;;;;;;;20.40;39.94;101161.09;5030270;28;20099;-72
2022/06/13 12:33:44;;;;;;;10.90;2.92;;;;;;;21.09;39.11;101157.88;5029443;28;20053;-72
2022/06/13 12:37:09;;;;;;;12.15;3.60;;;;;;;20.82;38.23;101159.31;5028683;28;20056;-71
2022/06/13 12:40:46;;;;;;;9.55;2.92;;;;;;;20.81;38.77;101167.41;5029804;28;20566;-71
2022/06/13 12:44:21;;;;;;;11.32;3.28;;;;;;;20.99;38.70;101173.78;5009585;28;20120;-70
2022/06/13 12:47:39;;;;;;;7.50;2.75;;;;;;;20.79;36.92;101164.03;5009122;28;20053;-69
2022/06/13 12:51:04;;;;;;;7.63;2.75;;;;;;;20.61;35.89;101163.78;5009849;28;20084;-71
2022/06/13 12:54:32;;;;;;;9.27;3.05;;;;;;;21.27;35.96;101153.63;5008443;28;20060;-71
2022/06/13 12:58:05;;;;;;;9.23;3.20;;;;;;;21.55;37.41;101152.09;5009524;28;20510;-72
2022/06/13 13:01:19;;;;;;;9.87;3.43;;;;;;;21.41;38.37;101164.91;5001133;28;20096;-72
2022/06/13 13:04:58;;;;;;;9.13;3.53;;;;;;;21.92;38.22;101159.44;5009724;28;20470;-71
2022/06/13 13:08:27;;;;;;;8.88;3.08;;;;;;;22.34;38.79;101159.22;4986415;28;20423;-71
2022/06/13 13:12:02;;;;;;;7.25;2.90;;;;;;;23.22;36.86;101143.84;5009523;28;20064;-72
2022/06/13 13:15:35;;;;;;;8.68;2.70;;;;;;;22.91;36.93;101152.09;5014982;28;20602;-75
2022/06/13 13:19:03;;;;;;;11.95;3.25;;;;;;;22.48;33.62;101148.09;5010550;28;20606;-71
2022/06/13 13:22:14;;;;;;;8.75;3.58;;;;;;;22.68;33.44;101142.75;5019550;28;20367;-70
2022/06/13 13:25:28;;;;;;;11.90;3.05;;;;;;;22.70;33.04;101151.44;5028798;28;20084;-71
2022/06/13 13:29:09;;;;;;;10.85;3.50;;;;;;;23.49;33.64;101143.03;5029306;28;20098;-71
2022/06/13 13:32:25;;;;;;;11.50;3.22;;;;;;;22.95;33.01;101142.84;5028342;28;20048;-70
2022/06/13 13:35:46;;;;;;;12.00;3.03;;;;;;;24.04;33.62;101155.47;5027439;28;20099;-72
2022/06/13 13:38:58;;;;;;;9.88;3.35;;;;;;;23.58;33.02;101143.94;5028238;28;20072;-69
2022/06/13 13:42:10;;;;;;;9.77;2.92;;;;;;;22.73;34.00;101153.81;5028602;28;20565;-70
2022/06/13 13:45:13;;;;;;;7.60;2.90;;;;;;;23.10;33.89;101161.03;5029448;28;20048;-68
2022/06/13 13:48:52;;;;;;;7.72;2.65;;;;;;;23.03;36.72;101154.59;5028929;28;20059;-71
2022/06/13 13:52:01;;;;;;;10.60;2.92;;;;;;;23.32;36.29;101170.50;4989913;28;20044;-72
2022/06/13 13:55:37;;;;;;;11.25;2.72;;;;;;;23.62;36.65;101172.03;5028484;28;20055;-71
2022/06/13 13:58:43;;;;;;;10.68;2.97;;;;;;;23.82;37.45;101175.44;5015399;28;20048;-71
2022/06/13 14:02:05;;;;;;;10.40;2.63;;;;;;;24.78;34.98;101160.44;5008126;28;20053;-71
2022/06/13 14:05:45;;;;;;;6.32;2.47;;;;;;;23.82;35.50;101168.28;5008082;28;20045;-72
2022/06/13 14:08:50;;;;;;;9.15;2.47;;;;;;;22.97;36.88;101172.88;5007741;28;20059;-69
2022/06/13 14:12:10;;;;;;;6.20;2.20;;;;;;;24.37;32.42;101168.13;5008417;28;20048;-70
2022/06/13 14:15:18;;;;;;;7.15;2.65;;;;;;;27.78;27.57;101152.91;5013453;28;20131;-70
2022/06/13 14:18:27;;;;;;;9.75;2.92;;;;;;;27.28;26.57;101151.47;5016258;28;20850;-71
2022/06/13 14:21:33;;;;;;;8.45;2.67;;;;;;;28.63;24.68;101157.31;5029018;28;20044;-72
2022/06/13 14:24:52;;;;;;;8.90;2.83;;;;;;;29.16;25.50;101161.66;5028712;28;20518;-71
2022/06/13 14:28:04;;;;;;;8.68;2.38;;;;;;;27.48;27.61;101152.72;5028042;28;20084;-70
2022/06/13 14:31:10;;;;;;;8.82;2.42;;;;;;;26.36;28.26;101142.91;5025379;28;20051;-71
2022/06/13 14:37:47;;;;;;;7.70;2.55;;;;;;;27.33;26.33;101152.63;5008300;28;20057;-70
2022/06/13 14:40:57;;;;;;;8.63;2.63;;;;;;;28.14;25.76;101141.56;5009221;28;20045;-71
2022/06/13 14:44:24;;;;;;;6.72;2.50;;;;;;;26.33;28.80;101145.94;4997407;28;20045;-66
2022/06/13 14:48:14;;;;;;;6.97;2.50;;;;;;;27.78;25.91;101142.16;5027254;28;20434;-70
2022/06/13 14:51:23;;;;;;;9.07;2.83;;;;;;;24.96;30.41;101159.56;5008945;28;20099;-71
2022/06/13 14:54:37;;;;;;;10.70;2.97;;;;;;;23.74;32.75;101160.19;5022590;28;20095;-70
2022/06/13 14:57:43;;;;;;;8.93;3.33;;;;;;;23.88;32.90;101157.00;5014431;28;20557;-70
2022/06/13 15:01:15;;;;;;;10.18;4.15;;;;;;;26.52;29.41;101153.66;5019365;28;20048;-70
2022/06/13 15:04:22;;;;;;;8.45;2.85;;;;;;;29.44;25.54;101150.19;5027995;28;20091;-70
2022/06/13 15:07:53;;;;;;;6.30;2.45;;;;;;;28.28;24.61;101144.31;5027195;28;20056;-71
2022/06/13 15:11:00;;;;;;;9.52;2.75;;;;;;;25.39;27.21;101152.41;5026097;28;20044;-71
2022/06/13 15:14:10;;;;;;;6.80;2.25;;;;;;;26.73;25.44;101146.91;5026912;28;20037;-70
2022/06/13 15:17:15;;;;;;;12.32;3.05;;;;;;;28.27;23.52;101148.03;5027489;28;20052;-72
2022/06/13 15:20:25;;;;;;;7.03;2.63;;;;;;;26.43;25.17;101142.06;5026714;28;20049;-71